sensor_id;sensor_type;location;lat;lon;timestamp;pressure;altitude;pressure_sealevel;temperature;humidity
20424;BME280;10371;49.042;8.002;2024-03-02T00:00:50;98697.13;;;3.10;100.00
20424;BME280;10371;49.042;8.002;2024-03-02T00:01:51;98690.13;;;2.99;100.00
20424;BME280;10371;49.042;8.002;2024-03-02T00:02:51;98696.38;;;2.95;100.00
20424;BME280;10371;49.042;8.002;2024-03-02T00:03:52;98685.91;;;2.85;100.00
20424;BME280;10371;49.042;8.002;2024-03-02T00:04:52;98689.44;;;2.84;100.00
20424;BME280;10371;49.042;8.002;2024-03-02T00:05:52;98689.31;;;2.86;100.00
20424;BME280;10371;49.042;8.002;2024-03-02T00:06:53;98696.91;;;2.87;100.00
20424;BME280;10371;49.042;8.002;2024-03-02T00:07:57;98695.78;;;2.91;100.00
20424;BME280;10371;49.042;8.002;2024-03-02T00:08:58;98696.28;;;2.97;100.00
20424;BME280;10371;49.042;8.002;2024-03-02T00:09:59;98696.28;;;2.97;100.00
20424;BME280;10371;49.042;8.002;2024-03-02T00:11:00;98692.19;;;2.94;100.00
20424;BME280;10371;49.042;8.002;2024-03-02T00:12:02;98697.31;;;2.94;100.00
20424;BME280;10371;49.042;8.002;2024-03-02T00:13:03;98695.56;;;2.95;100.00
20424;BME280;10371;49.042;8.002;2024-03-02T00:14:03;98702.38;;;2.96;100.00
20424;BME280;10371;49.042;8.002;2024-03-02T00:15:40;98704.09;;;2.95;100.00
20424;BME280;10371;49.042;8.002;2024-03-02T00:16:44;98694.66;;;2.96;100.00
20424;BME280;10371;49.042;8.002;2024-03-02T00:17:44;98694.75;;;2.94;100.00
20424;BME280;10371;49.042;8.002;2024-03-02T00:18:45;98693.00;;;2.95;100.00
20424;BME280;10371;49.042;8.002;2024-03-02T00:19:46;98699.69;;;2.97;100.00
20424;BME280;10371;49.042;8.002;2024-03-02T00:20:46;98696.91;;;3.00;100.00
20424;BME280;10371;49.042;8.002;2024-03-02T00:21:47;98698.34;;;3.04;100.00
20424;BME280;10371;49.042;8.002;2024-03-02T00:22:48;98694.97;;;3.04;100.00
20424;BME280;10371;49.042;8.002;2024-03-02T00:23:48;98704.00;;;3.09;100.00
20424;BME280;10371;49.042;8.002;2024-03-02T00:24:49;98693.00;;;3.07;100.00
20424;BME280;10371;49.042;8.002;2024-03-02T00:25:52;98692.19;;;3.07;100.00
20424;BME280;10371;49.042;8.002;2024-03-02T00:26:55;98700.72;;;3.07;100.00
20424;BME280;10371;49.042;8.002;2024-03-02T00:27:56;98701.63;;;3.06;100.00
20424;BME280;10371;49.042;8.002;2024-03-02T00:28:56;98700.00;;;3.05;100.00
20424;BME280;10371;49.042;8.002;2024-03-02T00:30:01;98693.31;;;3.03;100.00
20424;BME280;10371;49.042;8.002;2024-03-02T00:31:05;98703.16;;;3.09;100.00
20424;BME280;10371;49.042;8.002;2024-03-02T00:32:15;98697.31;;;3.07;100.00
20424;BME280;10371;49.042;8.002;2024-03-02T00:33:16;98700.00;;;3.05;100.00
20424;BME280;10371;49.042;8.002;2024-03-02T00:34:17;98692.50;;;3.02;100.00
20424;BME280;10371;49.042;8.002;2024-03-02T00:35:17;98695.88;;;3.03;100.00
20424;BME280;10371;49.042;8.002;2024-03-02T00:36:26;98683.34;;;2.98;100.00
20424;BME280;10371;49.042;8.002;2024-03-02T00:37:27;98693.44;;;3.01;100.00
20424;BME280;10371;49.042;8.002;2024-03-02T00:38:29;98693.63;;;2.98;100.00
20424;BME280;10371;49.042;8.002;2024-03-02T00:39:29;98691.06;;;2.98;100.00
20424;BME280;10371;49.042;8.002;2024-03-02T00:40:30;98708.84;;;3.01;100.00
20424;BME280;10371;49.042;8.002;2024-03-02T00:41:31;98690.72;;;3.03;100.00
20424;BME280;10371;49.042;8.002;2024-03-02T00:42:31;98695.06;;;3.02;100.00
20424;BME280;10371;49.042;8.002;2024-03-02T00:43:45;98694.75;;;3.07;100.00
20424;BME280;10371;49.042;8.002;2024-03-02T00:44:47;98696.47;;;3.06;100.00
20424;BME280;10371;49.042;8.002;2024-03-02T00:45:48;98706.75;;;3.06;100.00
20424;BME280;10371;49.042;8.002;2024-03-02T00:46:48;98695.44;;;3.09;100.00
20424;BME280;10371;49.042;8.002;2024-03-02T00:47:48;98686.41;;;3.03;100.00
20424;BME280;10371;49.042;8.002;2024-03-02T00:48:59;98690.53;;;3.06;100.00
20424;BME280;10371;49.042;8.002;2024-03-02T00:50:00;98698.34;;;3.04;100.00
20424;BME280;10371;49.042;8.002;2024-03-02T00:51:00;98691.66;;;3.02;100.00
20424;BME280;10371;49.042;8.002;2024-03-02T00:52:01;98694.25;;;3.02;100.00
20424;BME280;10371;49.042;8.002;2024-03-02T00:53:01;98703.72;;;3.01;100.00
20424;BME280;10371;49.042;8.002;2024-03-02T00:54:09;98698.44;;;3.03;100.00
20424;BME280;10371;49.042;8.002;2024-03-02T00:55:09;98689.91;;;3.02;100.00
20424;BME280;10371;49.042;8.002;2024-03-02T00:56:10;98684.78;;;3.02;100.00
20424;BME280;10371;49.042;8.002;2024-03-02T00:57:12;98687.25;;;3.04;100.00
20424;BME280;10371;49.042;8.002;2024-03-02T00:58:12;98689.72;;;3.05;100.00
20424;BME280;10371;49.042;8.002;2024-03-02T00:59:12;98684.56;;;3.05;100.00
20424;BME280;10371;49.042;8.002;2024-03-02T01:00:13;98675.09;;;3.06;100.00
20424;BME280;10371;49.042;8.002;2024-03-02T01:01:15;98675.81;;;3.08;100.00
20424;BME280;10371;49.042;8.002;2024-03-02T01:02:16;98689.28;;;3.11;100.00
20424;BME280;10371;49.042;8.002;2024-03-02T01:03:16;98689.06;;;3.14;100.00
20424;BME280;10371;49.042;8.002;2024-03-02T01:04:16;98695.06;;;3.15;100.00
20424;BME280;10371;49.042;8.002;2024-03-02T01:05:17;98685.59;;;3.16;100.00
20424;BME280;10371;49.042;8.002;2024-03-02T01:06:17;98691.56;;;3.16;100.00
20424;BME280;10371;49.042;8.002;2024-03-02T01:07:18;98686.72;;;3.11;100.00
20424;BME280;10371;49.042;8.002;2024-03-02T01:08:18;98691.16;;;3.09;100.00
20424;BME280;10371;49.042;8.002;2024-03-02T01:09:19;98686.09;;;3.08;100.00
20424;BME280;10371;49.042;8.002;2024-03-02T01:10:19;98692.28;;;3.05;100.00
20424;BME280;10371;49.042;8.002;2024-03-02T01:11:20;98689.09;;;3.02;100.00
20424;BME280;10371;49.042;8.002;2024-03-02T01:12:22;98686.81;;;2.97;100.00
20424;BME280;10371;49.042;8.002;2024-03-02T01:13:22;98688.59;;;2.97;100.00
20424;BME280;10371;49.042;8.002;2024-03-02T01:14:23;98691.25;;;2.95;100.00
20424;BME280;10371;49.042;8.002;2024-03-02T01:15:23;98692.19;;;2.94;100.00
20424;BME280;10371;49.042;8.002;2024-03-02T01:16:24;98687.47;;;2.88;100.00
20424;BME280;10371;49.042;8.002;2024-03-02T01:17:24;98683.88;;;2.90;100.00
20424;BME280;10371;49.042;8.002;2024-03-02T01:18:24;98679.03;;;2.86;100.00
20424;BME280;10371;49.042;8.002;2024-03-02T01:19:24;98686.00;;;2.84;100.00
20424;BME280;10371;49.042;8.002;2024-03-02T01:20:25;98680.38;;;2.79;100.00
20424;BME280;10371;49.042;8.002;2024-03-02T01:21:25;98684.56;;;2.80;100.00
20424;BME280;10371;49.042;8.002;2024-03-02T01:22:25;98684.78;;;2.77;100.00
20424;BME280;10371;49.042;8.002;2024-03-02T01:23:26;98684.19;;;2.73;100.00
20424;BME280;10371;49.042;8.002;2024-03-02T01:24:26;98684.19;;;2.73;100.00
20424;BME280;10371;49.042;8.002;2024-03-02T01:25:26;98686.84;;;2.72;100.00
20424;BME280;10371;49.042;8.002;2024-03-02T01:26:27;98692.19;;;2.68;100.00
20424;BME280;10371;49.042;8.002;2024-03-02T01:27:27;98682.13;;;2.65;100.00
20424;BME280;10371;49.042;8.002;2024-03-02T01:28:27;98685.59;;;2.64;100.00
20424;BME280;10371;49.042;8.002;2024-03-02T01:29:27;98691.66;;;2.63;100.00
20424;BME280;10371;49.042;8.002;2024-03-02T01:30:28;98695.06;;;2.64;100.00
20424;BME280;10371;49.042;8.002;2024-03-02T01:31:28;98686.81;;;2.59;100.00
20424;BME280;10371;49.042;8.002;2024-03-02T01:32:28;98684.38;;;2.57;100.00
20424;BME280;10371;49.042;8.002;2024-03-02T01:33:29;98688.56;;;2.58;100.00
20424;BME280;10371;49.042;8.002;2024-03-02T01:34:30;98686.94;;;2.57;100.00
20424;BME280;10371;49.042;8.002;2024-03-02T01:35:30;98684.56;;;2.54;100.00
20424;BME280;10371;49.042;8.002;2024-03-02T01:36:30;98680.53;;;2.50;100.00
20424;BME280;10371;49.042;8.002;2024-03-02T01:37:31;98678.63;;;2.54;100.00
20424;BME280;10371;49.042;8.002;2024-03-02T01:38:31;98679.00;;;2.47;100.00
20424;BME280;10371;49.042;8.002;2024-03-02T01:39:31;98682.09;;;2.53;100.00
20424;BME280;10371;49.042;8.002;2024-03-02T01:40:33;98679.84;;;2.48;100.00
20424;BME280;10371;49.042;8.002;2024-03-02T01:41:34;98685.88;;;2.47;100.00
20424;BME280;10371;49.042;8.002;2024-03-02T01:42:38;98677.44;;;2.45;100.00
20424;BME280;10371;49.042;8.002;2024-03-02T01:43:38;98682.91;;;2.40;100.00
20424;BME280;10371;49.042;8.002;2024-03-02T01:44:40;98682.28;;;2.37;100.00
20424;BME280;10371;49.042;8.002;2024-03-02T01:45:41;98677.34;;;2.34;100.00
20424;BME280;10371;49.042;8.002;2024-03-02T01:46:41;98671.59;;;2.30;100.00
20424;BME280;10371;49.042;8.002;2024-03-02T01:47:41;98677.75;;;2.28;100.00
20424;BME280;10371;49.042;8.002;2024-03-02T01:48:42;98679.41;;;2.29;100.00
20424;BME280;10371;49.042;8.002;2024-03-02T01:49:42;98683.28;;;2.21;100.00
20424;BME280;10371;49.042;8.002;2024-03-02T01:50:42;98681.84;;;2.17;100.00
20424;BME280;10371;49.042;8.002;2024-03-02T01:51:43;98684.50;;;2.16;100.00
20424;BME280;10371;49.042;8.002;2024-03-02T01:52:43;98681.00;;;2.17;100.00
20424;BME280;10371;49.042;8.002;2024-03-02T01:53:44;98683.88;;;2.12;100.00
20424;BME280;10371;49.042;8.002;2024-03-02T01:54:44;98685.72;;;2.10;100.00
20424;BME280;10371;49.042;8.002;2024-03-02T01:55:44;98683.06;;;2.12;100.00
20424;BME280;10371;49.042;8.002;2024-03-02T01:56:45;98684.06;;;2.09;100.00
20424;BME280;10371;49.042;8.002;2024-03-02T01:57:45;98674.63;;;2.10;100.00
20424;BME280;10371;49.042;8.002;2024-03-02T01:58:47;98679.56;;;2.13;100.00
20424;BME280;10371;49.042;8.002;2024-03-02T01:59:47;98679.44;;;2.14;100.00
20424;BME280;10371;49.042;8.002;2024-03-02T02:00:48;98678.63;;;2.14;100.00
20424;BME280;10371;49.042;8.002;2024-03-02T02:01:49;98672.78;;;2.12;100.00
20424;BME280;10371;49.042;8.002;2024-03-02T02:02:49;98672.69;;;2.13;100.00
20424;BME280;10371;49.042;8.002;2024-03-02T02:03:49;98671.84;;;2.13;100.00
20424;BME280;10371;49.042;8.002;2024-03-02T02:04:50;98680.38;;;2.13;100.00
20424;BME280;10371;49.042;8.002;2024-03-02T02:05:50;98685.72;;;2.10;100.00
20424;BME280;10371;49.042;8.002;2024-03-02T02:06:50;98683.34;;;2.07;100.00
20424;BME280;10371;49.042;8.002;2024-03-02T02:07:51;98677.69;;;2.02;100.00
20424;BME280;10371;49.042;8.002;2024-03-02T02:08:51;98679.72;;;1.97;100.00
20424;BME280;10371;49.042;8.002;2024-03-02T02:09:51;98678.81;;;1.98;100.00
20424;BME280;10371;49.042;8.002;2024-03-02T02:10:51;98677.88;;;1.99;100.00
20424;BME280;10371;49.042;8.002;2024-03-02T02:11:52;98675.31;;;1.99;100.00
20424;BME280;10371;49.042;8.002;2024-03-02T02:12:52;98671.81;;;2.00;100.00
20424;BME280;10371;49.042;8.002;2024-03-02T02:13:53;98668.22;;;2.03;100.00
20424;BME280;10371;49.042;8.002;2024-03-02T02:14:55;98671.63;;;2.03;100.00
20424;BME280;10371;49.042;8.002;2024-03-02T02:16:04;98673.38;;;2.03;100.00
20424;BME280;10371;49.042;8.002;2024-03-02T02:17:04;98666.59;;;2.01;100.00
20424;BME280;10371;49.042;8.002;2024-03-02T02:18:04;98660.53;;;2.03;100.00
20424;BME280;10371;49.042;8.002;2024-03-02T02:19:05;98667.41;;;2.02;100.00
20424;BME280;10371;49.042;8.002;2024-03-02T02:20:06;98663.91;;;2.03;100.00
20424;BME280;10371;49.042;8.002;2024-03-02T02:21:07;98664.84;;;2.02;100.00
20424;BME280;10371;49.042;8.002;2024-03-02T02:22:11;98657.16;;;2.02;100.00
20424;BME280;10371;49.042;8.002;2024-03-02T02:23:12;98663.09;;;2.03;100.00
20424;BME280;10371;49.042;8.002;2024-03-02T02:24:13;98658.09;;;2.01;100.00
20424;BME280;10371;49.042;8.002;2024-03-02T02:25:14;98652.94;;;2.01;100.00
20424;BME280;10371;49.042;8.002;2024-03-02T02:26:14;98652.94;;;2.01;100.00
20424;BME280;10371;49.042;8.002;2024-03-02T02:27:14;98658.97;;;2.00;100.00
20424;BME280;10371;49.042;8.002;2024-03-02T02:28:15;98653.03;;;1.99;100.00
20424;BME280;10371;49.042;8.002;2024-03-02T02:29:16;98651.28;;;2.00;100.00
20424;BME280;10371;49.042;8.002;2024-03-02T02:30:25;98653.03;;;1.99;100.00
20424;BME280;10371;49.042;8.002;2024-03-02T02:31:25;98650.47;;;1.99;100.00
20424;BME280;10371;49.042;8.002;2024-03-02T02:32:25;98646.88;;;2.02;100.00
20424;BME280;10371;49.042;8.002;2024-03-02T02:33:26;98654.78;;;1.99;100.00
20424;BME280;10371;49.042;8.002;2024-03-02T02:34:26;98660.84;;;1.98;100.00
20424;BME280;10371;49.042;8.002;2024-03-02T02:35:26;98648.91;;;1.97;100.00
20424;BME280;10371;49.042;8.002;2024-03-02T02:36:27;98650.75;;;1.95;100.00
20424;BME280;10371;49.042;8.002;2024-03-02T02:37:27;98650.75;;;1.95;100.00
20424;BME280;10371;49.042;8.002;2024-03-02T02:38:27;98644.81;;;1.94;100.00
20424;BME280;10371;49.042;8.002;2024-03-02T02:39:27;98646.56;;;1.94;100.00
20424;BME280;10371;49.042;8.002;2024-03-02T02:40:28;98648.31;;;1.93;100.00
20424;BME280;10371;49.042;8.002;2024-03-02T02:41:30;98645.13;;;1.90;100.00
20424;BME280;10371;49.042;8.002;2024-03-02T02:42:31;98640.06;;;1.88;100.00
20424;BME280;10371;49.042;8.002;2024-03-02T02:43:31;98635.94;;;1.86;100.00
20424;BME280;10371;49.042;8.002;2024-03-02T02:44:31;98632.47;;;1.87;100.00
20424;BME280;10371;49.042;8.002;2024-03-02T02:45:31;98626.50;;;1.86;100.00
20424;BME280;10371;49.042;8.002;2024-03-02T02:46:31;98627.53;;;1.84;100.00
20424;BME280;10371;49.042;8.002;2024-03-02T02:47:32;98635.22;;;1.84;100.00
20424;BME280;10371;49.042;8.002;2024-03-02T02:48:35;98629.28;;;1.83;100.00
20424;BME280;10371;49.042;8.002;2024-03-02T02:49:35;98631.84;;;1.83;100.00
20424;BME280;10371;49.042;8.002;2024-03-02T02:50:35;98631.63;;;1.86;100.00
20424;BME280;10371;49.042;8.002;2024-03-02T02:51:36;98630.09;;;1.84;100.00
20424;BME280;10371;49.042;8.002;2024-03-02T02:52:37;98627.63;;;1.82;100.00
20424;BME280;10371;49.042;8.002;2024-03-02T02:53:39;98626.63;;;1.85;100.00
20424;BME280;10371;49.042;8.002;2024-03-02T02:54:42;98639.53;;;1.83;100.00
20424;BME280;10371;49.042;8.002;2024-03-02T02:55:43;98636.34;;;1.79;100.00
20424;BME280;10371;49.042;8.002;2024-03-02T02:56:43;98631.41;;;1.76;100.00
20424;BME280;10371;49.042;8.002;2024-03-02T02:57:43;98635.81;;;1.74;100.00
20424;BME280;10371;49.042;8.002;2024-03-02T02:58:44;98631.28;;;1.65;100.00
20424;BME280;10371;49.042;8.002;2024-03-02T02:59:44;98632.19;;;1.64;100.00
20424;BME280;10371;49.042;8.002;2024-03-02T03:00:45;98628.72;;;1.65;100.00
20424;BME280;10371;49.042;8.002;2024-03-02T03:01:45;98626.44;;;1.61;100.00
20424;BME280;10371;49.042;8.002;2024-03-02T03:02:47;98615.44;;;1.59;100.00
20424;BME280;10371;49.042;8.002;2024-03-02T03:03:48;98616.28;;;1.59;100.00
20424;BME280;10371;49.042;8.002;2024-03-02T03:04:48;98621.50;;;1.58;100.00
20424;BME280;10371;49.042;8.002;2024-03-02T03:05:49;98615.44;;;1.59;100.00
20424;BME280;10371;49.042;8.002;2024-03-02T03:06:49;98611.84;;;1.61;100.00
20424;BME280;10371;49.042;8.002;2024-03-02T03:07:49;98616.28;;;1.59;100.00
20424;BME280;10371;49.042;8.002;2024-03-02T03:08:50;98613.59;;;1.61;100.00
20424;BME280;10371;49.042;8.002;2024-03-02T03:09:50;98614.41;;;1.61;100.00
20424;BME280;10371;49.042;8.002;2024-03-02T03:10:50;98623.78;;;1.62;100.00
20424;BME280;10371;49.042;8.002;2024-03-02T03:11:51;98622.84;;;1.63;100.00
20424;BME280;10371;49.042;8.002;2024-03-02T03:12:51;98624.59;;;1.63;100.00
20424;BME280;10371;49.042;8.002;2024-03-02T03:13:52;98621.28;;;1.61;100.00
20424;BME280;10371;49.042;8.002;2024-03-02T03:14:54;98623.78;;;1.62;100.00
20424;BME280;10371;49.042;8.002;2024-03-02T03:15:54;98628.91;;;1.62;100.00
20424;BME280;10371;49.042;8.002;2024-03-02T03:16:54;98614.41;;;1.61;100.00
20424;BME280;10371;49.042;8.002;2024-03-02T03:17:55;98626.34;;;1.62;100.00
20424;BME280;10371;49.042;8.002;2024-03-02T03:18:55;98626.34;;;1.62;100.00
20424;BME280;10371;49.042;8.002;2024-03-02T03:19:55;98620.41;;;1.62;100.00
20424;BME280;10371;49.042;8.002;2024-03-02T03:20:56;98623.78;;;1.62;100.00
20424;BME280;10371;49.042;8.002;2024-03-02T03:21:56;98619.47;;;1.63;100.00
20424;BME280;10371;49.042;8.002;2024-03-02T03:22:57;98622.03;;;1.63;100.00
20424;BME280;10371;49.042;8.002;2024-03-02T03:23:57;98622.84;;;1.63;100.00
20424;BME280;10371;49.042;8.002;2024-03-02T03:24:57;98616.97;;;1.61;100.00
20424;BME280;10371;49.042;8.002;2024-03-02T03:25:57;98623.03;;;1.60;100.00
20424;BME280;10371;49.042;8.002;2024-03-02T03:26:58;98614.41;;;1.61;100.00
20424;BME280;10371;49.042;8.002;2024-03-02T03:27:58;98616.91;;;1.63;100.00
20424;BME280;10371;49.042;8.002;2024-03-02T03:28:58;98616.97;;;1.61;100.00
20424;BME280;10371;49.042;8.002;2024-03-02T03:29:58;98611.03;;;1.61;100.00
20424;BME280;10371;49.042;8.002;2024-03-02T03:30:59;98617.19;;;1.58;100.00
20424;BME280;10371;49.042;8.002;2024-03-02T03:31:59;98622.31;;;1.58;100.00
20424;BME280;10371;49.042;8.002;2024-03-02T03:32:59;98621.41;;;1.59;100.00
20424;BME280;10371;49.042;8.002;2024-03-02T03:33:59;98617.19;;;1.58;100.00
20424;BME280;10371;49.042;8.002;2024-03-02T03:35:00;98619.88;;;1.56;100.00
20424;BME280;10371;49.042;8.002;2024-03-02T03:36:00;98613.88;;;1.56;100.00
20424;BME280;10371;49.042;8.002;2024-03-02T03:37:03;98613.88;;;1.56;100.00
20424;BME280;10371;49.042;8.002;2024-03-02T03:38:03;98612.16;;;1.56;100.00
20424;BME280;10371;49.042;8.002;2024-03-02T03:39:04;98617.38;;;1.55;100.00
20424;BME280;10371;49.042;8.002;2024-03-02T03:40:06;98619.00;;;1.56;100.00
20424;BME280;10371;49.042;8.002;2024-03-02T03:41:10;98617.50;;;1.53;100.00
20424;BME280;10371;49.042;8.002;2024-03-02T03:42:10;98617.50;;;1.53;100.00
20424;BME280;10371;49.042;8.002;2024-03-02T03:43:10;98619.22;;;1.53;100.00
20424;BME280;10371;49.042;8.002;2024-03-02T03:44:11;98613.38;;;1.51;100.00
20424;BME280;10371;49.042;8.002;2024-03-02T03:45:11;98615.09;;;1.50;100.00
20424;BME280;10371;49.042;8.002;2024-03-02T03:46:11;98611.00;;;1.48;100.00
20424;BME280;10371;49.042;8.002;2024-03-02T03:47:11;98614.28;;;1.50;100.00
20424;BME280;10371;49.042;8.002;2024-03-02T03:48:12;98610.81;;;1.51;100.00
20424;BME280;10371;49.042;8.002;2024-03-02T03:49:12;98610.91;;;1.49;100.00
20424;BME280;10371;49.042;8.002;2024-03-02T03:50:12;98612.63;;;1.49;100.00
20424;BME280;10371;49.042;8.002;2024-03-02T03:51:13;98617.78;;;1.49;100.00
20424;BME280;10371;49.042;8.002;2024-03-02T03:52:13;98610.16;;;1.47;100.00
20424;BME280;10371;49.042;8.002;2024-03-02T03:53:13;98614.47;;;1.47;100.00
20424;BME280;10371;49.042;8.002;2024-03-02T03:54:14;98617.16;;;1.45;100.00
20424;BME280;10371;49.042;8.002;2024-03-02T03:55:15;98612.03;;;1.45;100.00
20424;BME280;10371;49.042;8.002;2024-03-02T03:56:15;98616.41;;;1.43;100.00
20424;BME280;10371;49.042;8.002;2024-03-02T03:57:16;98621.44;;;1.45;100.00
20424;BME280;10371;49.042;8.002;2024-03-02T03:58:16;98614.66;;;1.44;100.00
20424;BME280;10371;49.042;8.002;2024-03-02T03:59:18;98621.63;;;1.42;100.00
20424;BME280;10371;49.042;8.002;2024-03-02T04:00:19;98625.94;;;1.41;100.00
20424;BME280;10371;49.042;8.002;2024-03-02T04:01:19;98619.91;;;1.42;100.00
20424;BME280;10371;49.042;8.002;2024-03-02T04:02:19;98625.13;;;1.41;100.00
20424;BME280;10371;49.042;8.002;2024-03-02T04:03:20;98622.63;;;1.39;100.00
20424;BME280;10371;49.042;8.002;2024-03-02T04:04:20;98623.56;;;1.38;100.00
20424;BME280;10371;49.042;8.002;2024-03-02T04:05:20;98626.25;;;1.37;100.00
20424;BME280;10371;49.042;8.002;2024-03-02T04:06:20;98621.94;;;1.37;100.00
20424;BME280;10371;49.042;8.002;2024-03-02T04:07:21;98625.31;;;1.38;100.00
20424;BME280;10371;49.042;8.002;2024-03-02T04:08:21;98625.50;;;1.34;100.00
20424;BME280;10371;49.042;8.002;2024-03-02T04:09:21;98627.88;;;1.38;100.00
20424;BME280;10371;49.042;8.002;2024-03-02T04:10:22;98634.00;;;1.35;100.00
20424;BME280;10371;49.042;8.002;2024-03-02T04:11:22;98635.75;;;1.34;100.00
20424;BME280;10371;49.042;8.002;2024-03-02T04:12:22;98643.34;;;1.36;100.00
20424;BME280;10371;49.042;8.002;2024-03-02T04:13:23;98639.06;;;1.37;100.00
20424;BME280;10371;49.042;8.002;2024-03-02T04:14:23;98639.06;;;1.37;100.00
20424;BME280;10371;49.042;8.002;2024-03-02T04:15:23;98638.13;;;1.38;100.00
20424;BME280;10371;49.042;8.002;2024-03-02T04:16:24;98641.50;;;1.38;100.00
20424;BME280;10371;49.042;8.002;2024-03-02T04:17:24;98645.81;;;1.38;100.00
20424;BME280;10371;49.042;8.002;2024-03-02T04:18:24;98642.31;;;1.39;100.00
20424;BME280;10371;49.042;8.002;2024-03-02T04:19:25;98639.75;;;1.39;100.00
20424;BME280;10371;49.042;8.002;2024-03-02T04:20:25;98643.25;;;1.38;100.00
20424;BME280;10371;49.042;8.002;2024-03-02T04:21:25;98644.91;;;1.39;100.00
20424;BME280;10371;49.042;8.002;2024-03-02T04:22:27;98639.69;;;1.40;100.00
20424;BME280;10371;49.042;8.002;2024-03-02T04:23:27;98640.50;;;1.41;100.00
20424;BME280;10371;49.042;8.002;2024-03-02T04:24:27;98635.56;;;1.38;100.00
20424;BME280;10371;49.042;8.002;2024-03-02T04:25:27;98634.75;;;1.37;100.00
20424;BME280;10371;49.042;8.002;2024-03-02T04:26:28;98632.88;;;1.39;100.00
20424;BME280;10371;49.042;8.002;2024-03-02T04:27:28;98633.53;;;1.43;100.00
20424;BME280;10371;49.042;8.002;2024-03-02T04:28:28;98637.53;;;1.47;100.00
20424;BME280;10371;49.042;8.002;2024-03-02T04:29:29;98626.41;;;1.48;100.00
20424;BME280;10371;49.042;8.002;2024-03-02T04:30:29;98627.00;;;1.51;100.00
20424;BME280;10371;49.042;8.002;2024-03-02T04:31:29;98619.22;;;1.53;100.00
20424;BME280;10371;49.042;8.002;2024-03-02T04:32:29;98631.13;;;1.54;100.00
20424;BME280;10371;49.042;8.002;2024-03-02T04:33:30;98628.44;;;1.55;100.00
20424;BME280;10371;49.042;8.002;2024-03-02T04:34:30;98626.91;;;1.53;100.00
20424;BME280;10371;49.042;8.002;2024-03-02T04:35:30;98633.78;;;1.52;100.00
20424;BME280;10371;49.042;8.002;2024-03-02T04:36:31;98633.88;;;1.51;100.00
20424;BME280;10371;49.042;8.002;2024-03-02T04:37:34;98635.53;;;1.52;100.00
20424;BME280;10371;49.042;8.002;2024-03-02T04:38:34;98638.72;;;1.55;100.00
20424;BME280;10371;49.042;8.002;2024-03-02T04:39:35;98642.81;;;1.58;100.00
20424;BME280;10371;49.042;8.002;2024-03-02T04:40:35;98636.69;;;1.61;100.00
20424;BME280;10371;49.042;8.002;2024-03-02T04:41:36;98629.72;;;1.63;100.00
20424;BME280;10371;49.042;8.002;2024-03-02T04:42:36;98632.91;;;1.66;100.00
20424;BME280;10371;49.042;8.002;2024-03-02T04:43:37;98631.09;;;1.68;100.00
20424;BME280;10371;49.042;8.002;2024-03-02T04:44:37;98634.06;;;1.75;100.00
20424;BME280;10371;49.042;8.002;2024-03-02T04:45:38;98637.28;;;1.78;100.00
20424;BME280;10371;49.042;8.002;2024-03-02T04:46:38;98628.44;;;1.83;100.00
20424;BME280;10371;49.042;8.002;2024-03-02T04:47:39;98630.63;;;1.89;100.00
20424;BME280;10371;49.042;8.002;2024-03-02T04:48:39;98624.38;;;1.93;100.00
20424;BME280;10371;49.042;8.002;2024-03-02T04:49:39;98624.91;;;1.98;100.00
20424;BME280;10371;49.042;8.002;2024-03-02T04:50:39;98626.25;;;2.04;100.00
20424;BME280;10371;49.042;8.002;2024-03-02T04:51:40;98625.94;;;2.08;100.00
20424;BME280;10371;49.042;8.002;2024-03-02T04:52:40;98629.03;;;2.13;100.00
20424;BME280;10371;49.042;8.002;2024-03-02T04:53:41;98633.88;;;2.18;100.00
20424;BME280;10371;49.042;8.002;2024-03-02T04:54:41;98625.84;;;2.22;100.00
20424;BME280;10371;49.042;8.002;2024-03-02T04:55:59;98634.22;;;2.26;100.00
20424;BME280;10371;49.042;8.002;2024-03-02T04:57:18;98635.53;;;2.32;100.00
20424;BME280;10371;49.042;8.002;2024-03-02T04:58:18;98644.69;;;2.36;100.00
20424;BME280;10371;49.042;8.002;2024-03-02T04:59:19;98640.06;;;2.41;100.00
20424;BME280;10371;49.042;8.002;2024-03-02T05:00:20;98643.25;;;2.44;100.00
20424;BME280;10371;49.042;8.002;2024-03-02T05:01:20;98635.44;;;2.46;100.00
20424;BME280;10371;49.042;8.002;2024-03-02T05:02:20;98645.31;;;2.52;100.00
20424;BME280;10371;49.042;8.002;2024-03-02T05:03:21;98641.72;;;2.55;100.00
20424;BME280;10371;49.042;8.002;2024-03-02T05:04:21;98646.75;;;2.56;100.00
20424;BME280;10371;49.042;8.002;2024-03-02T05:05:22;98647.38;;;2.60;100.00
20424;BME280;10371;49.042;8.002;2024-03-02T05:06:22;98646.75;;;2.56;100.00
20424;BME280;10371;49.042;8.002;2024-03-02T05:07:23;98655.28;;;2.57;100.00
20424;BME280;10371;49.042;8.002;2024-03-02T05:08:24;98656.31;;;2.54;100.00
20424;BME280;10371;49.042;8.002;2024-03-02T05:09:24;98648.81;;;2.51;100.00
20424;BME280;10371;49.042;8.002;2024-03-02T05:10:24;98649.84;;;2.49;100.00
20424;BME280;10371;49.042;8.002;2024-03-02T05:11:25;98647.47;;;2.45;100.00
20424;BME280;10371;49.042;8.002;2024-03-02T05:12:48;98643.44;;;2.41;100.00
20424;BME280;10371;49.042;8.002;2024-03-02T05:13:59;98652.09;;;2.40;100.00
20424;BME280;10371;49.042;8.002;2024-03-02T05:14:59;98649.41;;;2.42;100.00
20424;BME280;10371;49.042;8.002;2024-03-02T05:15:59;98653.63;;;2.43;100.00
20424;BME280;10371;49.042;8.002;2024-03-02T05:17:00;98661.22;;;2.44;100.00
20424;BME280;10371;49.042;8.002;2024-03-02T05:18:00;98655.19;;;2.45;100.00
20424;BME280;10371;49.042;8.002;2024-03-02T05:19:02;98656.81;;;2.46;100.00
20424;BME280;10371;49.042;8.002;2024-03-02T05:20:04;98654.16;;;2.48;100.00
20424;BME280;10371;49.042;8.002;2024-03-02T05:21:05;98646.47;;;2.48;100.00
20424;BME280;10371;49.042;8.002;2024-03-02T05:22:05;98657.44;;;2.50;100.00
20424;BME280;10371;49.042;8.002;2024-03-02T05:23:05;98659.28;;;2.48;100.00
20424;BME280;10371;49.042;8.002;2024-03-02T05:24:06;98654.16;;;2.48;100.00